sensor_id;sensor_type;location;lat;lon;timestamp;P1;durP1;ratioP1;P2;durP2;ratioP2
45867;SDS011;31582;45.490;7.860;2023-04-24T00:01:45;4.88;;;4.20;;
45867;SDS011;31582;45.490;7.860;2023-04-24T00:04:12;3.63;;;3.33;;
45867;SDS011;31582;45.490;7.860;2023-04-24T00:06:40;4.57;;;4.18;;
45867;SDS011;31582;45.490;7.860;2023-04-24T00:09:09;3.13;;;2.87;;
45867;SDS011;31582;45.490;7.860;2023-04-24T00:11:36;3.90;;;3.50;;
45867;SDS011;31582;45.490;7.860;2023-04-24T00:14:03;3.28;;;3.05;;
45867;SDS011;31582;45.490;7.860;2023-04-24T00:16:30;3.30;;;3.00;;
45867;SDS011;31582;45.490;7.860;2023-04-24T00:18:57;3.03;;;2.70;;
45867;SDS011;31582;45.490;7.860;2023-04-24T00:21:24;3.22;;;3.03;;
45867;SDS011;31582;45.490;7.860;2023-04-24T00:23:52;3.20;;;2.90;;
45867;SDS011;31582;45.490;7.860;2023-04-24T00:26:19;3.55;;;3.25;;
45867;SDS011;31582;45.490;7.860;2023-04-24T00:28:46;3.97;;;3.67;;
45867;SDS011;31582;45.490;7.860;2023-04-24T00:31:13;3.70;;;3.40;;
45867;SDS011;31582;45.490;7.860;2023-04-24T00:33:40;3.78;;;3.47;;
45867;SDS011;31582;45.490;7.860;2023-04-24T00:36:07;4.40;;;4.10;;
45867;SDS011;31582;45.490;7.860;2023-04-24T00:38:33;3.90;;;3.60;;
45867;SDS011;31582;45.490;7.860;2023-04-24T00:41:00;4.20;;;3.80;;
45867;SDS011;31582;45.490;7.860;2023-04-24T00:43:27;3.70;;;3.40;;
45867;SDS011;31582;45.490;7.860;2023-04-24T00:45:54;5.13;;;4.57;;
45867;SDS011;31582;45.490;7.860;2023-04-24T00:48:21;4.38;;;4.07;;
45867;SDS011;31582;45.490;7.860;2023-04-24T00:50:50;4.40;;;4.00;;
45867;SDS011;31582;45.490;7.860;2023-04-24T00:53:17;4.03;;;3.67;;
45867;SDS011;31582;45.490;7.860;2023-04-24T00:55:43;4.55;;;4.15;;
45867;SDS011;31582;45.490;7.860;2023-04-24T00:58:11;4.13;;;3.72;;
45867;SDS011;31582;45.490;7.860;2023-04-24T01:00:39;4.57;;;3.97;;
45867;SDS011;31582;45.490;7.860;2023-04-24T01:03:06;4.20;;;3.80;;
45867;SDS011;31582;45.490;7.860;2023-04-24T01:05:34;3.95;;;3.65;;
45867;SDS011;31582;45.490;7.860;2023-04-24T01:08:01;4.57;;;4.18;;
45867;SDS011;31582;45.490;7.860;2023-04-24T01:10:29;3.88;;;3.58;;
45867;SDS011;31582;45.490;7.860;2023-04-24T01:12:59;4.50;;;4.10;;
45867;SDS011;31582;45.490;7.860;2023-04-24T01:15:26;3.92;;;3.63;;
45867;SDS011;31582;45.490;7.860;2023-04-24T01:17:53;4.85;;;4.45;;
45867;SDS011;31582;45.490;7.860;2023-04-24T01:20:20;4.30;;;3.90;;
45867;SDS011;31582;45.490;7.860;2023-04-24T01:22:48;4.38;;;3.97;;
45867;SDS011;31582;45.490;7.860;2023-04-24T01:25:15;4.22;;;3.65;;
45867;SDS011;31582;45.490;7.860;2023-04-24T01:27:42;3.83;;;3.53;;
45867;SDS011;31582;45.490;7.860;2023-04-24T01:30:09;3.40;;;3.10;;
45867;SDS011;31582;45.490;7.860;2023-04-24T01:32:36;4.60;;;3.92;;
45867;SDS011;31582;45.490;7.860;2023-04-24T01:35:04;3.28;;;3.03;;
45867;SDS011;31582;45.490;7.860;2023-04-24T01:37:32;3.40;;;3.17;;
45867;SDS011;31582;45.490;7.860;2023-04-24T01:39:59;3.60;;;3.30;;
45867;SDS011;31582;45.490;7.860;2023-04-24T01:42:26;3.50;;;3.20;;
45867;SDS011;31582;45.490;7.860;2023-04-24T01:44:53;4.32;;;3.92;;
45867;SDS011;31582;45.490;7.860;2023-04-24T01:47:20;3.97;;;3.55;;
45867;SDS011;31582;45.490;7.860;2023-04-24T01:49:48;3.97;;;3.67;;
45867;SDS011;31582;45.490;7.860;2023-04-24T01:52:16;3.80;;;3.50;;
45867;SDS011;31582;45.490;7.860;2023-04-24T01:54:44;4.15;;;3.83;;
45867;SDS011;31582;45.490;7.860;2023-04-24T01:57:11;3.38;;;3.08;;
45867;SDS011;31582;45.490;7.860;2023-04-24T01:59:39;4.07;;;3.72;;
45867;SDS011;31582;45.490;7.860;2023-04-24T02:02:06;3.95;;;3.65;;
45867;SDS011;31582;45.490;7.860;2023-04-24T02:04:33;4.35;;;4.03;;
45867;SDS011;31582;45.490;7.860;2023-04-24T02:07:00;3.83;;;3.53;;
45867;SDS011;31582;45.490;7.860;2023-04-24T02:09:27;4.43;;;4.03;;
45867;SDS011;31582;45.490;7.860;2023-04-24T02:11:54;3.88;;;3.58;;
45867;SDS011;31582;45.490;7.860;2023-04-24T02:14:23;4.13;;;3.83;;
45867;SDS011;31582;45.490;7.860;2023-04-24T02:16:49;4.57;;;4.17;;
45867;SDS011;31582;45.490;7.860;2023-04-24T02:19:16;4.13;;;3.72;;
45867;SDS011;31582;45.490;7.860;2023-04-24T02:21:43;3.80;;;3.50;;
45867;SDS011;31582;45.490;7.860;2023-04-24T02:24:10;4.72;;;4.22;;
45867;SDS011;31582;45.490;7.860;2023-04-24T02:26:37;4.30;;;3.90;;
45867;SDS011;31582;45.490;7.860;2023-04-24T02:29:04;4.60;;;4.20;;
45867;SDS011;31582;45.490;7.860;2023-04-24T02:31:31;4.32;;;3.92;;
45867;SDS011;31582;45.490;7.860;2023-04-24T02:33:58;4.72;;;4.32;;
45867;SDS011;31582;45.490;7.860;2023-04-24T02:36:25;4.87;;;4.07;;
45867;SDS011;31582;45.490;7.860;2023-04-24T02:38:51;4.50;;;4.10;;
45867;SDS011;31582;45.490;7.860;2023-04-24T02:41:18;4.73;;;4.33;;
45867;SDS011;31582;45.490;7.860;2023-04-24T02:43:45;4.20;;;3.80;;
45867;SDS011;31582;45.490;7.860;2023-04-24T02:46:12;5.25;;;4.78;;
45867;SDS011;31582;45.490;7.860;2023-04-24T02:48:39;5.30;;;4.80;;
45867;SDS011;31582;45.490;7.860;2023-04-24T02:51:06;4.43;;;4.13;;
45867;SDS011;31582;45.490;7.860;2023-04-24T02:53:33;3.95;;;3.58;;
45867;SDS011;31582;45.490;7.860;2023-04-24T02:56:00;4.22;;;3.85;;
45867;SDS011;31582;45.490;7.860;2023-04-24T02:58:27;3.63;;;3.23;;
45867;SDS011;31582;45.490;7.860;2023-04-24T03:00:54;5.88;;;5.38;;
45867;SDS011;31582;45.490;7.860;2023-04-24T03:03:22;4.40;;;4.00;;
45867;SDS011;31582;45.490;7.860;2023-04-24T03:05:49;3.97;;;3.67;;
45867;SDS011;31582;45.490;7.860;2023-04-24T03:08:16;4.43;;;4.00;;
45867;SDS011;31582;45.490;7.860;2023-04-24T03:10:43;4.28;;;3.88;;
45867;SDS011;31582;45.490;7.860;2023-04-24T03:13:13;4.32;;;3.92;;
45867;SDS011;31582;45.490;7.860;2023-04-24T03:15:41;4.32;;;3.92;;
45867;SDS011;31582;45.490;7.860;2023-04-24T03:18:08;4.00;;;3.65;;
45867;SDS011;31582;45.490;7.860;2023-04-24T03:20:35;3.20;;;3.00;;
45867;SDS011;31582;45.490;7.860;2023-04-24T03:23:03;3.53;;;3.22;;
45867;SDS011;31582;45.490;7.860;2023-04-24T03:25:30;4.25;;;3.85;;
45867;SDS011;31582;45.490;7.860;2023-04-24T03:27:57;4.40;;;4.00;;
45867;SDS011;31582;45.490;7.860;2023-04-24T03:30:24;3.55;;;3.25;;
45867;SDS011;31582;45.490;7.860;2023-04-24T03:32:51;3.42;;;3.13;;
45867;SDS011;31582;45.490;7.860;2023-04-24T03:35:18;3.50;;;3.20;;
45867;SDS011;31582;45.490;7.860;2023-04-24T03:37:45;3.50;;;3.20;;
45867;SDS011;31582;45.490;7.860;2023-04-24T03:40:11;3.40;;;3.10;;
45867;SDS011;31582;45.490;7.860;2023-04-24T03:42:38;3.20;;;2.90;;
45867;SDS011;31582;45.490;7.860;2023-04-24T03:45:05;3.38;;;3.08;;
45867;SDS011;31582;45.490;7.860;2023-04-24T03:47:33;3.92;;;3.53;;
45867;SDS011;31582;45.490;7.860;2023-04-24T03:50:00;4.13;;;3.72;;
45867;SDS011;31582;45.490;7.860;2023-04-24T03:52:27;4.15;;;3.75;;
45867;SDS011;31582;45.490;7.860;2023-04-24T03:54:54;3.70;;;3.40;;
45867;SDS011;31582;45.490;7.860;2023-04-24T03:57:21;3.33;;;3.03;;
45867;SDS011;31582;45.490;7.860;2023-04-24T03:59:48;3.50;;;3.20;;
45867;SDS011;31582;45.490;7.860;2023-04-24T04:02:15;3.88;;;3.47;;
45867;SDS011;31582;45.490;7.860;2023-04-24T04:04:42;3.67;;;3.38;;
45867;SDS011;31582;45.490;7.860;2023-04-24T04:07:09;3.67;;;3.47;;
45867;SDS011;31582;45.490;7.860;2023-04-24T04:09:37;3.42;;;3.13;;
45867;SDS011;31582;45.490;7.860;2023-04-24T04:12:04;4.73;;;4.03;;
45867;SDS011;31582;45.490;7.860;2023-04-24T04:14:31;3.50;;;3.20;;
45867;SDS011;31582;45.490;7.860;2023-04-24T04:16:58;2.90;;;2.70;;
45867;SDS011;31582;45.490;7.860;2023-04-24T04:19:25;2.95;;;2.75;;
45867;SDS011;31582;45.490;7.860;2023-04-24T04:21:52;2.72;;;2.53;;
45867;SDS011;31582;45.490;7.860;2023-04-24T04:24:22;2.83;;;2.63;;
45867;SDS011;31582;45.490;7.860;2023-04-24T04:26:50;2.83;;;2.63;;
45867;SDS011;31582;45.490;7.860;2023-04-24T04:29:18;3.10;;;2.90;;
45867;SDS011;31582;45.490;7.860;2023-04-24T04:31:45;2.95;;;2.75;;
45867;SDS011;31582;45.490;7.860;2023-04-24T04:34:12;3.08;;;2.88;;
45867;SDS011;31582;45.490;7.860;2023-04-24T04:36:40;3.08;;;2.83;;
45867;SDS011;31582;45.490;7.860;2023-04-24T04:39:07;2.90;;;2.70;;
45867;SDS011;31582;45.490;7.860;2023-04-24T04:41:34;3.33;;;3.05;;
45867;SDS011;31582;45.490;7.860;2023-04-24T04:44:01;2.60;;;2.40;;
45867;SDS011;31582;45.490;7.860;2023-04-24T04:46:31;2.78;;;2.58;;
45867;SDS011;31582;45.490;7.860;2023-04-24T04:48:59;3.13;;;2.92;;
45867;SDS011;31582;45.490;7.860;2023-04-24T04:51:27;3.03;;;2.80;;
45867;SDS011;31582;45.490;7.860;2023-04-24T04:53:54;1.85;;;1.75;;
45867;SDS011;31582;45.490;7.860;2023-04-24T04:56:21;2.10;;;2.00;;
45867;SDS011;31582;45.490;7.860;2023-04-24T04:58:48;2.10;;;2.00;;
45867;SDS011;31582;45.490;7.860;2023-04-24T05:01:15;2.00;;;1.90;;
45867;SDS011;31582;45.490;7.860;2023-04-24T05:03:42;2.25;;;2.10;;
45867;SDS011;31582;45.490;7.860;2023-04-24T05:06:09;2.00;;;1.90;;
45867;SDS011;31582;45.490;7.860;2023-04-24T05:08:36;2.00;;;1.90;;
45867;SDS011;31582;45.490;7.860;2023-04-24T05:11:03;2.97;;;2.78;;
45867;SDS011;31582;45.490;7.860;2023-04-24T05:13:30;2.17;;;2.07;;
45867;SDS011;31582;45.490;7.860;2023-04-24T05:16:06;4.53;;;4.13;;
45867;SDS011;31582;45.490;7.860;2023-04-24T05:18:33;3.92;;;3.63;;
45867;SDS011;31582;45.490;7.860;2023-04-24T05:21:00;5.05;;;4.55;;
45867;SDS011;31582;45.490;7.860;2023-04-24T05:23:27;4.63;;;4.23;;
45867;SDS011;31582;45.490;7.860;2023-04-24T05:25:54;3.60;;;3.30;;
45867;SDS011;31582;45.490;7.860;2023-04-24T05:28:21;3.15;;;2.75;;
45867;SDS011;31582;45.490;7.860;2023-04-24T05:30:48;3.33;;;3.03;;
45867;SDS011;31582;45.490;7.860;2023-04-24T05:33:15;3.95;;;3.50;;
45867;SDS011;31582;45.490;7.860;2023-04-24T05:35:41;3.20;;;3.00;;
45867;SDS011;31582;45.490;7.860;2023-04-24T05:38:12;3.00;;;2.80;;
45867;SDS011;31582;45.490;7.860;2023-04-24T05:40:40;3.00;;;2.80;;
45867;SDS011;31582;45.490;7.860;2023-04-24T05:43:06;3.00;;;2.80;;
45867;SDS011;31582;45.490;7.860;2023-04-24T05:45:33;3.47;;;3.17;;
45867;SDS011;31582;45.490;7.860;2023-04-24T05:48:02;2.83;;;2.55;;
45867;SDS011;31582;45.490;7.860;2023-04-24T05:50:29;2.40;;;2.20;;
45867;SDS011;31582;45.490;7.860;2023-04-24T05:52:56;3.80;;;3.40;;
45867;SDS011;31582;45.490;7.860;2023-04-24T05:55:25;4.10;;;3.80;;
45867;SDS011;31582;45.490;7.860;2023-04-24T05:57:52;3.10;;;2.88;;
45867;SDS011;31582;45.490;7.860;2023-04-24T06:00:19;4.53;;;4.13;;
45867;SDS011;31582;45.490;7.860;2023-04-24T06:02:46;5.10;;;4.70;;
45867;SDS011;31582;45.490;7.860;2023-04-24T06:05:13;4.32;;;4.03;;
45867;SDS011;31582;45.490;7.860;2023-04-24T06:07:41;3.78;;;3.47;;
45867;SDS011;31582;45.490;7.860;2023-04-24T06:10:08;4.20;;;3.90;;
45867;SDS011;31582;45.490;7.860;2023-04-24T06:12:35;4.88;;;4.38;;
45867;SDS011;31582;45.490;7.860;2023-04-24T06:15:03;4.38;;;3.97;;
45867;SDS011;31582;45.490;7.860;2023-04-24T06:17:30;4.22;;;3.83;;
45867;SDS011;31582;45.490;7.860;2023-04-24T06:19:58;4.22;;;3.85;;
45867;SDS011;31582;45.490;7.860;2023-04-24T06:22:25;4.65;;;4.25;;
45867;SDS011;31582;45.490;7.860;2023-04-24T06:24:52;4.22;;;3.92;;
45867;SDS011;31582;45.490;7.860;2023-04-24T06:27:19;4.22;;;3.92;;
45867;SDS011;31582;45.490;7.860;2023-04-24T06:29:45;4.15;;;3.75;;
45867;SDS011;31582;45.490;7.860;2023-04-24T06:32:18;4.32;;;3.95;;
45867;SDS011;31582;45.490;7.860;2023-04-24T06:34:46;4.13;;;3.83;;
45867;SDS011;31582;45.490;7.860;2023-04-24T06:37:13;4.38;;;3.97;;
45867;SDS011;31582;45.490;7.860;2023-04-24T06:39:41;4.07;;;3.78;;
45867;SDS011;31582;45.490;7.860;2023-04-24T06:42:09;4.07;;;3.78;;
45867;SDS011;31582;45.490;7.860;2023-04-24T06:44:35;5.07;;;4.60;;
45867;SDS011;31582;45.490;7.860;2023-04-24T06:47:07;6.40;;;5.80;;
45867;SDS011;31582;45.490;7.860;2023-04-24T06:49:38;6.00;;;5.50;;
45867;SDS011;31582;45.490;7.860;2023-04-24T06:52:05;6.88;;;6.28;;
45867;SDS011;31582;45.490;7.860;2023-04-24T06:54:32;5.10;;;4.60;;
45867;SDS011;31582;45.490;7.860;2023-04-24T06:56:59;5.38;;;4.88;;
45867;SDS011;31582;45.490;7.860;2023-04-24T06:59:27;6.53;;;5.93;;
45867;SDS011;31582;45.490;7.860;2023-04-24T07:01:54;5.95;;;5.35;;
45867;SDS011;31582;45.490;7.860;2023-04-24T07:04:21;5.85;;;5.25;;
45867;SDS011;31582;45.490;7.860;2023-04-24T07:06:49;4.97;;;4.57;;
45867;SDS011;31582;45.490;7.860;2023-04-24T07:09:17;5.10;;;4.70;;
45867;SDS011;31582;45.490;7.860;2023-04-24T07:11:47;6.07;;;5.57;;
45867;SDS011;31582;45.490;7.860;2023-04-24T07:14:14;6.32;;;5.78;;
45867;SDS011;31582;45.490;7.860;2023-04-24T07:16:41;7.25;;;6.40;;
45867;SDS011;31582;45.490;7.860;2023-04-24T07:19:08;6.03;;;5.53;;
45867;SDS011;31582;45.490;7.860;2023-04-24T07:21:36;5.63;;;5.13;;
45867;SDS011;31582;45.490;7.860;2023-04-24T07:24:02;5.43;;;5.00;;
45867;SDS011;31582;45.490;7.860;2023-04-24T07:26:30;5.07;;;4.68;;
45867;SDS011;31582;45.490;7.860;2023-04-24T07:28:57;5.57;;;5.00;;
45867;SDS011;31582;45.490;7.860;2023-04-24T07:31:24;5.10;;;4.70;;
45867;SDS011;31582;45.490;7.860;2023-04-24T07:33:51;5.65;;;4.57;;
45867;SDS011;31582;45.490;7.860;2023-04-24T07:36:18;4.88;;;4.47;;
45867;SDS011;31582;45.490;7.860;2023-04-24T07:38:45;5.10;;;4.37;;
45867;SDS011;31582;45.490;7.860;2023-04-24T07:41:13;4.55;;;4.15;;
45867;SDS011;31582;45.490;7.860;2023-04-24T07:43:40;5.07;;;4.40;;
45867;SDS011;31582;45.490;7.860;2023-04-24T07:46:08;4.03;;;3.60;;
45867;SDS011;31582;45.490;7.860;2023-04-24T07:48:36;4.50;;;3.80;;
45867;SDS011;31582;45.490;7.860;2023-04-24T07:51:03;5.63;;;4.60;;
45867;SDS011;31582;45.490;7.860;2023-04-24T07:53:30;6.20;;;4.50;;
45867;SDS011;31582;45.490;7.860;2023-04-24T07:55:57;4.13;;;3.47;;
45867;SDS011;31582;45.490;7.860;2023-04-24T07:58:24;3.60;;;3.17;;
45867;SDS011;31582;45.490;7.860;2023-04-24T08:00:51;3.10;;;2.80;;
45867;SDS011;31582;45.490;7.860;2023-04-24T08:03:18;3.05;;;2.80;;
45867;SDS011;31582;45.490;7.860;2023-04-24T08:05:46;2.83;;;2.60;;
45867;SDS011;31582;45.490;7.860;2023-04-24T08:08:13;2.90;;;2.58;;
45867;SDS011;31582;45.490;7.860;2023-04-24T08:10:40;2.60;;;2.40;;
45867;SDS011;31582;45.490;7.860;2023-04-24T08:13:07;3.10;;;2.90;;
45867;SDS011;31582;45.490;7.860;2023-04-24T08:15:34;3.38;;;2.90;;
45867;SDS011;31582;45.490;7.860;2023-04-24T08:18:01;2.60;;;2.40;;
45867;SDS011;31582;45.490;7.860;2023-04-24T08:20:28;2.50;;;2.30;;
45867;SDS011;31582;45.490;7.860;2023-04-24T08:22:55;2.65;;;2.42;;
45867;SDS011;31582;45.490;7.860;2023-04-24T08:25:22;2.70;;;2.50;;
45867;SDS011;31582;45.490;7.860;2023-04-24T08:27:51;4.30;;;2.40;;
45867;SDS011;31582;45.490;7.860;2023-04-24T08:30:18;2.17;;;1.98;;
45867;SDS011;31582;45.490;7.860;2023-04-24T08:32:45;2.90;;;2.60;;
45867;SDS011;31582;45.490;7.860;2023-04-24T08:35:12;2.22;;;2.03;;
45867;SDS011;31582;45.490;7.860;2023-04-24T08:37:39;2.30;;;2.08;;
45867;SDS011;31582;45.490;7.860;2023-04-24T08:40:12;2.60;;;2.40;;
45867;SDS011;31582;45.490;7.860;2023-04-24T08:42:44;2.00;;;1.80;;
45867;SDS011;31582;45.490;7.860;2023-04-24T08:45:11;1.85;;;1.75;;
45867;SDS011;31582;45.490;7.860;2023-04-24T08:47:39;2.92;;;1.80;;
45867;SDS011;31582;45.490;7.860;2023-04-24T08:50:08;2.40;;;1.63;;
45867;SDS011;31582;45.490;7.860;2023-04-24T08:52:38;2.08;;;1.60;;
45867;SDS011;31582;45.490;7.860;2023-04-24T08:55:05;2.47;;;1.80;;
45867;SDS011;31582;45.490;7.860;2023-04-24T08:57:32;1.63;;;1.50;;
45867;SDS011;31582;45.490;7.860;2023-04-24T08:59:59;1.83;;;1.73;;
45867;SDS011;31582;45.490;7.860;2023-04-24T09:02:27;2.37;;;1.50;;
45867;SDS011;31582;45.490;7.860;2023-04-24T09:04:57;1.73;;;1.30;;
45867;SDS011;31582;45.490;7.860;2023-04-24T09:07:24;1.73;;;1.50;;
45867;SDS011;31582;45.490;7.860;2023-04-24T09:09:53;2.88;;;2.30;;
45867;SDS011;31582;45.490;7.860;2023-04-24T09:12:21;3.08;;;2.20;;
45867;SDS011;31582;45.490;7.860;2023-04-24T09:14:48;2.15;;;1.95;;
45867;SDS011;31582;45.490;7.860;2023-04-24T09:17:16;2.10;;;1.87;;
45867;SDS011;31582;45.490;7.860;2023-04-24T09:19:43;2.33;;;1.83;;
45867;SDS011;31582;45.490;7.860;2023-04-24T09:22:10;2.67;;;2.47;;
45867;SDS011;31582;45.490;7.860;2023-04-24T09:24:38;2.50;;;2.15;;
45867;SDS011;31582;45.490;7.860;2023-04-24T09:27:05;1.70;;;1.60;;
45867;SDS011;31582;45.490;7.860;2023-04-24T09:29:35;3.22;;;2.40;;
45867;SDS011;31582;45.490;7.860;2023-04-24T09:32:24;2.10;;;1.90;;
45867;SDS011;31582;45.490;7.860;2023-04-24T09:35:08;2.10;;;1.83;;
45867;SDS011;31582;45.490;7.860;2023-04-24T09:37:41;2.10;;;1.60;;
45867;SDS011;31582;45.490;7.860;2023-04-24T09:42:46;1.63;;;1.50;;
45867;SDS011;31582;45.490;7.860;2023-04-24T09:45:18;1.63;;;1.52;;
45867;SDS011;31582;45.490;7.860;2023-04-24T09:47:46;2.87;;;1.40;;
45867;SDS011;31582;45.490;7.860;2023-04-24T09:50:17;1.90;;;1.45;;
45867;SDS011;31582;45.490;7.860;2023-04-24T09:52:46;1.90;;;1.38;;
45867;SDS011;31582;45.490;7.860;2023-04-24T09:55:22;1.95;;;1.30;;
45867;SDS011;31582;45.490;7.860;2023-04-24T09:57:50;1.40;;;1.10;;
45867;SDS011;31582;45.490;7.860;2023-04-24T10:00:21;1.50;;;1.10;;
45867;SDS011;31582;45.490;7.860;2023-04-24T10:02:59;1.57;;;1.37;;
45867;SDS011;31582;45.490;7.860;2023-04-24T10:05:34;2.20;;;2.00;;
45867;SDS011;31582;45.490;7.860;2023-04-24T10:08:06;3.55;;;2.30;;
45867;SDS011;31582;45.490;7.860;2023-04-24T10:10:43;2.03;;;1.87;;
45867;SDS011;31582;45.490;7.860;2023-04-24T10:13:12;1.90;;;1.70;;
45867;SDS011;31582;45.490;7.860;2023-04-24T10:15:41;1.55;;;1.45;;
45867;SDS011;31582;45.490;7.860;2023-04-24T10:18:08;1.38;;;1.20;;
45867;SDS011;31582;45.490;7.860;2023-04-24T10:20:37;1.70;;;1.60;;
45867;SDS011;31582;45.490;7.860;2023-04-24T10:23:05;1.75;;;1.60;;
45867;SDS011;31582;45.490;7.860;2023-04-24T10:25:33;2.35;;;1.85;;
45867;SDS011;31582;45.490;7.860;2023-04-24T10:28:01;2.10;;;1.75;;
45867;SDS011;31582;45.490;7.860;2023-04-24T10:30:32;1.70;;;1.40;;
45867;SDS011;31582;45.490;7.860;2023-04-24T10:33:02;2.20;;;1.30;;
45867;SDS011;31582;45.490;7.860;2023-04-24T10:35:31;1.63;;;1.40;;
45867;SDS011;31582;45.490;7.860;2023-04-24T10:38:08;1.20;;;1.10;;
45867;SDS011;31582;45.490;7.860;2023-04-24T10:40:38;3.13;;;1.30;;
45867;SDS011;31582;45.490;7.860;2023-04-24T10:43:06;2.20;;;1.50;;
45867;SDS011;31582;45.490;7.860;2023-04-24T10:45:37;2.67;;;1.40;;
45867;SDS011;31582;45.490;7.860;2023-04-24T10:48:05;2.13;;;1.58;;
45867;SDS011;31582;45.490;7.860;2023-04-24T10:50:44;1.73;;;1.60;;
45867;SDS011;31582;45.490;7.860;2023-04-24T10:53:16;2.00;;;1.73;;
45867;SDS011;31582;45.490;7.860;2023-04-24T10:55:45;1.13;;;0.90;;
45867;SDS011;31582;45.490;7.860;2023-04-24T10:58:23;2.05;;;1.38;;
45867;SDS011;31582;45.490;7.860;2023-04-24T11:00:57;1.52;;;1.30;;
45867;SDS011;31582;45.490;7.860;2023-04-24T11:03:30;1.50;;;1.10;;
45867;SDS011;31582;45.490;7.860;2023-04-24T11:06:03;4.10;;;1.25;;
45867;SDS011;31582;45.490;7.860;2023-04-24T11:08:36;16.70;;;3.10;;
45867;SDS011;31582;45.490;7.860;2023-04-24T11:11:15;4.80;;;1.77;;
45867;SDS011;31582;45.490;7.860;2023-04-24T11:19:09;7.28;;;2.20;;
45867;SDS011;31582;45.490;7.860;2023-04-24T11:21:43;1.63;;;1.23;;
45867;SDS011;31582;45.490;7.860;2023-04-24T11:29:41;2.20;;;1.50;;
45867;SDS011;31582;45.490;7.860;2023-04-24T11:35:05;1.15;;;0.70;;
45867;SDS011;31582;45.490;7.860;2023-04-24T11:37:41;1.02;;;0.88;;
45867;SDS011;31582;45.490;7.860;2023-04-24T11:40:10;1.00;;;0.73;;
45867;SDS011;31582;45.490;7.860;2023-04-24T11:42:39;1.23;;;1.00;;
45867;SDS011;31582;45.490;7.860;2023-04-24T11:45:10;1.10;;;0.90;;
45867;SDS011;31582;45.490;7.860;2023-04-24T11:47:39;1.60;;;0.98;;
45867;SDS011;31582;45.490;7.860;2023-04-24T11:50:08;0.82;;;0.60;;
45867;SDS011;31582;45.490;7.860;2023-04-24T11:52:41;1.00;;;0.50;;
45867;SDS011;31582;45.490;7.860;2023-04-24T11:57:42;0.73;;;0.60;;
45867;SDS011;31582;45.490;7.860;2023-04-24T12:00:17;1.30;;;0.60;;
45867;SDS011;31582;45.490;7.860;2023-04-24T12:02:45;0.70;;;0.50;;
45867;SDS011;31582;45.490;7.860;2023-04-24T12:05:19;1.13;;;0.68;;
45867;SDS011;31582;45.490;7.860;2023-04-24T12:07:57;43.58;;;9.27;;
45867;SDS011;31582;45.490;7.860;2023-04-24T12:10:24;51.60;;;13.57;;
45867;SDS011;31582;45.490;7.860;2023-04-24T12:12:52;5.07;;;1.00;;
45867;SDS011;31582;45.490;7.860;2023-04-24T12:15:20;0.70;;;0.40;;
45867;SDS011;31582;45.490;7.860;2023-04-24T12:17:47;0.50;;;0.40;;
45867;SDS011;31582;45.490;7.860;2023-04-24T12:20:17;0.70;;;0.40;;
45867;SDS011;31582;45.490;7.860;2023-04-24T12:22:57;0.60;;;0.40;;
45867;SDS011;31582;45.490;7.860;2023-04-24T12:25:26;0.85;;;0.30;;
45867;SDS011;31582;45.490;7.860;2023-04-24T12:30:38;1.13;;;0.52;;
45867;SDS011;31582;45.490;7.860;2023-04-24T12:33:18;2.30;;;0.70;;
45867;SDS011;31582;45.490;7.860;2023-04-24T12:35:47;0.95;;;0.40;;
45867;SDS011;31582;45.490;7.860;2023-04-24T12:38:15;0.52;;;0.50;;
45867;SDS011;31582;45.490;7.860;2023-04-24T12:40:44;1.00;;;0.50;;
45867;SDS011;31582;45.490;7.860;2023-04-24T12:43:19;0.55;;;0.40;;
45867;SDS011;31582;45.490;7.860;2023-04-24T12:45:47;1.10;;;0.50;;
45867;SDS011;31582;45.490;7.860;2023-04-24T12:48:15;0.40;;;0.40;;
45867;SDS011;31582;45.490;7.860;2023-04-24T12:50:42;1.20;;;0.40;;
45867;SDS011;31582;45.490;7.860;2023-04-24T12:53:12;2.72;;;0.60;;
45867;SDS011;31582;45.490;7.860;2023-04-24T12:55:39;1.52;;;0.40;;
45867;SDS011;31582;45.490;7.860;2023-04-24T12:58:07;1.20;;;0.30;;
45867;SDS011;31582;45.490;7.860;2023-04-24T13:00:34;0.63;;;0.30;;
45867;SDS011;31582;45.490;7.860;2023-04-24T13:03:01;1.27;;;0.35;;
45867;SDS011;31582;45.490;7.860;2023-04-24T13:05:29;0.80;;;0.40;;
45867;SDS011;31582;45.490;7.860;2023-04-24T13:07:57;0.40;;;0.30;;
45867;SDS011;31582;45.490;7.860;2023-04-24T13:10:24;0.70;;;0.50;;
45867;SDS011;31582;45.490;7.860;2023-04-24T13:12:51;1.40;;;0.40;;
45867;SDS011;31582;45.490;7.860;2023-04-24T13:15:18;0.93;;;0.50;;
45867;SDS011;31582;45.490;7.860;2023-04-24T13:17:44;0.33;;;0.20;;
45867;SDS011;31582;45.490;7.860;2023-04-24T13:20:12;0.40;;;0.30;;
45867;SDS011;31582;45.490;7.860;2023-04-24T13:22:38;0.40;;;0.30;;
45867;SDS011;31582;45.490;7.860;2023-04-24T13:25:07;1.30;;;0.30;;
45867;SDS011;31582;45.490;7.860;2023-04-24T13:27:35;1.05;;;0.40;;
45867;SDS011;31582;45.490;7.860;2023-04-24T13:30:02;0.93;;;0.30;;
45867;SDS011;31582;45.490;7.860;2023-04-24T13:32:29;0.68;;;0.30;;
45867;SDS011;31582;45.490;7.860;2023-04-24T13:34:56;0.80;;;0.30;;
45867;SDS011;31582;45.490;7.860;2023-04-24T13:37:24;0.57;;;0.32;;
45867;SDS011;31582;45.490;7.860;2023-04-24T13:39:50;1.70;;;0.20;;
45867;SDS011;31582;45.490;7.860;2023-04-24T13:42:17;0.30;;;0.30;;
45867;SDS011;31582;45.490;7.860;2023-04-24T13:44:46;0.90;;;0.20;;
45867;SDS011;31582;45.490;7.860;2023-04-24T13:47:13;0.10;;;0.10;;
45867;SDS011;31582;45.490;7.860;2023-04-24T13:49:39;0.50;;;0.10;;
45867;SDS011;31582;45.490;7.860;2023-04-24T13:52:06;0.30;;;0.10;;
45867;SDS011;31582;45.490;7.860;2023-04-24T13:54:33;0.10;;;0.00;;
45867;SDS011;31582;45.490;7.860;2023-04-24T13:57:00;0.90;;;0.10;;
45867;SDS011;31582;45.490;7.860;2023-04-24T13:59:29;0.30;;;0.10;;
45867;SDS011;31582;45.490;7.860;2023-04-24T14:01:57;1.10;;;0.20;;
45867;SDS011;31582;45.490;7.860;2023-04-24T14:04:23;1.20;;;0.10;;
45867;SDS011;31582;45.490;7.860;2023-04-24T14:06:51;0.90;;;0.10;;
45867;SDS011;31582;45.490;7.860;2023-04-24T14:09:18;0.30;;;0.10;;
45867;SDS011;31582;45.490;7.860;2023-04-24T14:11:45;3.28;;;0.10;;
45867;SDS011;31582;45.490;7.860;2023-04-24T14:14:12;0.73;;;0.10;;
45867;SDS011;31582;45.490;7.860;2023-04-24T14:16:39;1.30;;;0.10;;
45867;SDS011;31582;45.490;7.860;2023-04-24T14:19:06;0.98;;;0.10;;
45867;SDS011;31582;45.490;7.860;2023-04-24T14:21:33;5.00;;;0.15;;
45867;SDS011;31582;45.490;7.860;2023-04-24T14:24:01;2.77;;;0.10;;
45867;SDS011;31582;45.490;7.860;2023-04-24T14:26:28;0.70;;;0.10;;
45867;SDS011;31582;45.490;7.860;2023-04-24T14:28:54;2.50;;;0.10;;
45867;SDS011;31582;45.490;7.860;2023-04-24T14:31:39;1.85;;;0.00;;
45867;SDS011;31582;45.490;7.860;2023-04-24T14:34:06;0.90;;;0.20;;
45867;SDS011;31582;45.490;7.860;2023-04-24T14:36:33;2.73;;;0.20;;
45867;SDS011;31582;45.490;7.860;2023-04-24T14:39:01;0.52;;;0.10;;
45867;SDS011;31582;45.490;7.860;2023-04-24T14:41:32;0.20;;;0.10;;
45867;SDS011;31582;45.490;7.860;2023-04-24T14:44:02;0.38;;;0.10;;
45867;SDS011;31582;45.490;7.860;2023-04-24T14:46:29;0.52;;;0.20;;
45867;SDS011;31582;45.490;7.860;2023-04-24T14:48:58;0.28;;;0.05;;
45867;SDS011;31582;45.490;7.860;2023-04-24T14:51:26;0.30;;;0.00;;
45867;SDS011;31582;45.490;7.860;2023-04-24T14:53:53;0.80;;;0.10;;
45867;SDS011;31582;45.490;7.860;2023-04-24T14:56:20;1.60;;;0.10;;
45867;SDS011;31582;45.490;7.860;2023-04-24T14:58:47;0.65;;;0.10;;
45867;SDS011;31582;45.490;7.860;2023-04-24T15:01:14;1.88;;;0.17;;
45867;SDS011;31582;45.490;7.860;2023-04-24T15:03:43;1.20;;;0.20;;
45867;SDS011;31582;45.490;7.860;2023-04-24T15:06:11;1.97;;;0.13;;
45867;SDS011;31582;45.490;7.860;2023-04-24T15:08:38;0.60;;;0.10;;
45867;SDS011;31582;45.490;7.860;2023-04-24T15:11:05;0.77;;;0.10;;
45867;SDS011;31582;45.490;7.860;2023-04-24T15:13:32;0.40;;;0.10;;
45867;SDS011;31582;45.490;7.860;2023-04-24T15:15:59;0.30;;;0.00;;